createdAt,value
2023-03-26T00:00:26.649Z,25.67
2023-03-26T00:05:29.445Z,28.13
2023-03-26T00:10:32.082Z,30.33
2023-03-26T00:15:37.930Z,32.50
2023-03-26T00:20:41.827Z,33.35
2023-03-26T00:25:46.256Z,37.20
2023-03-26T00:30:51.337Z,40.73
2023-03-26T00:35:56.015Z,44.67
2023-03-26T00:41:06.297Z,46.80
2023-03-26T00:46:11.598Z,37.20
2023-03-26T00:51:16.375Z,38.50
2023-03-26T00:56:19.573Z,33.00
2023-03-26T01:01:29.133Z,35.83
2023-03-26T01:06:36.660Z,46.17
2023-03-26T01:11:39.519Z,53.30
2023-03-26T01:16:47.511Z,63.45
2023-03-26T01:21:50.148Z,70.87
2023-03-26T01:26:53.077Z,69.00
2023-03-26T01:32:14.369Z,69.03
2023-03-26T01:37:30.752Z,58.80
2023-03-26T01:43:05.658Z,50.63
2023-03-26T01:48:08.417Z,40.40
2023-03-26T01:53:29.814Z,36.72
2023-03-26T01:58:40.053Z,32.67
2023-03-26T02:03:59.493Z,28.15
2023-03-26T02:09:11.269Z,26.88
2023-03-26T02:14:15.128Z,23.80
2023-03-26T02:19:22.343Z,23.77
2023-03-26T02:24:28.066Z,22.30
2023-03-26T02:29:37.989Z,22.13
2023-03-26T02:34:42.171Z,20.70
2023-03-26T02:39:45.624Z,21.00
2023-03-26T02:45:01.785Z,21.40
2023-03-26T02:50:22.590Z,20.67
2023-03-26T02:55:45.579Z,20.95
2023-03-26T03:00:51.041Z,20.95
2023-03-26T03:06:22.269Z,21.07
2023-03-26T03:11:27.646Z,22.48
2023-03-26T03:16:30.954Z,23.27
2023-03-26T03:21:38.643Z,25.42
2023-03-26T03:26:42.559Z,23.67
2023-03-26T03:31:57.409Z,22.07
2023-03-26T03:37:24.861Z,23.00
2023-03-26T03:42:30.004Z,22.33
2023-03-26T03:47:36.593Z,16.40
2023-03-26T03:52:59.338Z,14.07
2023-03-26T03:58:02.427Z,13.63
2023-03-26T04:03:06.685Z,13.68
2023-03-26T04:08:10.352Z,13.80
2023-03-26T04:13:26.958Z,20.05
2023-03-26T04:18:53.713Z,21.48
2023-03-26T04:23:57.140Z,21.30
2023-03-26T04:29:24.673Z,21.90
2023-03-26T04:34:30.209Z,19.60
2023-03-26T04:39:42.131Z,19.88
2023-03-26T04:45:04.943Z,19.33
2023-03-26T04:50:09.576Z,20.87
2023-03-26T04:55:36.907Z,19.10
2023-03-26T05:00:47.897Z,16.97
2023-03-26T05:05:51.830Z,14.27
2023-03-26T05:10:57.592Z,12.27
2023-03-26T05:16:07.510Z,11.40
2023-03-26T05:21:16.242Z,10.95
2023-03-26T05:26:20.264Z,11.05
2023-03-26T05:31:23.386Z,11.13
2023-03-26T05:36:30.245Z,9.85
2023-03-26T05:41:53.205Z,9.47
2023-03-26T05:46:58.112Z,10.00
2023-03-26T05:52:02.759Z,9.13
2023-03-26T05:57:13.885Z,8.45
2023-03-26T06:02:35.313Z,8.23
2023-03-26T06:07:57.885Z,9.60
2023-03-26T06:13:07.063Z,10.02
2023-03-26T06:18:13.258Z,8.07
2023-03-26T06:23:36.248Z,7.80
2023-03-26T06:28:38.864Z,7.97
2023-03-26T06:34:07.526Z,8.10
2023-03-26T06:39:10.733Z,8.33
2023-03-26T06:44:21.610Z,7.68
2023-03-26T06:49:44.243Z,8.07
2023-03-26T06:55:08.900Z,7.50
2023-03-26T07:00:33.862Z,7.90
2023-03-26T07:05:54.917Z,8.23
2023-03-26T07:11:29.682Z,7.17
2023-03-26T07:16:51.774Z,6.30
2023-03-26T07:22:21.804Z,5.32
2023-03-26T07:27:43.438Z,4.83
2023-03-26T07:32:46.770Z,4.47
2023-03-26T07:38:27.639Z,4.38
2023-03-26T07:43:54.434Z,4.40
2023-03-26T07:49:33.022Z,3.80
2023-03-26T07:54:59.806Z,4.00
2023-03-26T08:00:42.424Z,4.05
2023-03-26T08:05:53.950Z,4.50
2023-03-26T08:11:54.373Z,3.70
2023-03-26T08:17:06.156Z,3.78
2023-03-26T08:22:15.798Z,4.63
2023-03-26T08:27:40.554Z,4.40
2023-03-26T08:32:49.557Z,5.07
2023-03-26T08:37:52.397Z,4.55
2023-03-26T08:43:24.834Z,4.73
2023-03-26T08:48:52.109Z,4.43
2023-03-26T08:54:12.672Z,5.30
2023-03-26T08:59:33.040Z,5.97
2023-03-26T09:05:13.214Z,5.30
2023-03-26T09:10:41.527Z,4.45
2023-03-26T09:16:05.620Z,5.37
2023-03-26T09:21:14.052Z,4.63
2023-03-26T09:26:59.610Z,4.70
2023-03-26T09:32:31.790Z,4.65
2023-03-26T09:37:56.794Z,5.27
2023-03-26T09:43:34.612Z,5.65
2023-03-26T09:48:46.287Z,6.00
2023-03-26T09:54:07.017Z,6.13
2023-03-26T09:59:30.443Z,7.13
2023-03-26T10:05:05.303Z,7.47
2023-03-26T10:10:35.721Z,6.63
2023-03-26T10:16:05.904Z,5.90
2023-03-26T10:21:24.621Z,6.28
2023-03-26T10:26:36.841Z,5.60
2023-03-26T10:31:47.903Z,5.50
2023-03-26T10:37:25.350Z,6.72
2023-03-26T10:42:46.087Z,5.85
2023-03-26T10:48:11.627Z,6.43
2023-03-26T10:53:28.219Z,6.03
2023-03-26T10:58:48.804Z,6.60
2023-03-26T11:04:16.609Z,5.77
2023-03-26T11:09:18.961Z,6.03
2023-03-26T11:14:34.220Z,5.63
2023-03-26T11:19:41.957Z,5.70
2023-03-26T11:24:56.191Z,5.47
2023-03-26T11:30:17.407Z,5.65
2023-03-26T11:35:40.590Z,5.30
2023-03-26T11:40:51.209Z,5.90
2023-03-26T11:46:20.998Z,5.32
2023-03-26T11:51:34.424Z,4.60
2023-03-26T11:57:04.541Z,5.57
2023-03-26T12:02:14.080Z,5.13
2023-03-26T12:07:32.187Z,4.90
2023-03-26T12:12:41.166Z,5.15
2023-03-26T12:17:44.060Z,3.77
2023-03-26T12:22:48.022Z,3.17
2023-03-26T12:27:53.273Z,2.90
2023-03-26T12:33:04.054Z,3.00
2023-03-26T12:38:35.991Z,3.00
2023-03-26T12:44:55.269Z,2.97
2023-03-26T12:49:15.925Z,3.20
2023-03-26T12:54:36.763Z,3.30
2023-03-26T13:00:02.316Z,2.60
2023-03-26T13:05:33.246Z,2.60
2023-03-26T13:10:42.214Z,2.20
2023-03-26T13:15:52.787Z,2.60
2023-03-26T13:21:38.497Z,2.97
2023-03-26T13:26:54.879Z,4.57
2023-03-26T13:32:25.225Z,5.60
2023-03-26T13:37:42.430Z,7.72
2023-03-26T13:43:23.617Z,7.43
2023-03-26T13:48:32.674Z,7.23
2023-03-26T13:54:04.944Z,5.82
2023-03-26T13:59:23.016Z,4.82
2023-03-26T14:04:37.200Z,4.20
2023-03-26T14:10:11.634Z,3.63
2023-03-26T14:15:36.752Z,3.88
2023-03-26T14:21:00.817Z,4.33
2023-03-26T14:26:38.364Z,4.75
2023-03-26T14:32:01.764Z,4.25
2023-03-26T14:37:35.187Z,4.00
2023-03-26T14:42:43.786Z,4.80
2023-03-26T14:48:20.244Z,9.30
2023-03-26T14:53:33.722Z,17.45
2023-03-26T14:59:07.829Z,18.27
2023-03-26T15:04:34.759Z,14.70
2023-03-26T15:10:01.537Z,13.55
2023-03-26T15:15:45.720Z,12.80
2023-03-26T15:21:30.892Z,13.70
2023-03-26T15:26:41.981Z,19.38
2023-03-26T15:31:47.788Z,15.33
2023-03-26T15:37:12.197Z,12.10
2023-03-26T15:42:17.816Z,8.80
2023-03-26T15:47:41.456Z,8.52
2023-03-26T15:53:09.912Z,10.23
2023-03-26T15:58:53.747Z,8.50
2023-03-26T16:04:30.252Z,8.93
2023-03-26T16:09:47.959Z,9.77
2023-03-26T16:15:21.518Z,7.15
2023-03-26T16:20:33.224Z,3.47
2023-03-26T16:26:27.882Z,3.53
2023-03-26T16:31:38.692Z,3.87
2023-03-26T16:36:51.829Z,3.50
2023-03-26T16:42:23.708Z,3.83
2023-03-26T16:47:38.956Z,4.67
2023-03-26T16:53:02.902Z,6.00
2023-03-26T16:58:22.119Z,6.10
2023-03-26T17:03:52.255Z,5.30
2023-03-26T17:09:07.510Z,5.07
2023-03-26T17:14:11.054Z,4.60
2023-03-26T17:19:42.193Z,3.97
2023-03-26T17:24:54.512Z,3.13
2023-03-26T17:30:54.049Z,2.83
2023-03-26T17:36:12.064Z,2.22
2023-03-26T17:41:35.468Z,2.47
2023-03-26T17:46:48.478Z,2.72
2023-03-26T17:51:54.462Z,2.70
2023-03-26T17:57:04.323Z,2.60
2023-03-26T18:02:16.257Z,2.90
2023-03-26T18:07:44.303Z,2.92
2023-03-26T18:13:05.252Z,3.10
2023-03-26T18:18:20.082Z,3.13
2023-03-26T18:23:47.600Z,3.58
2023-03-26T18:29:08.560Z,4.15
2023-03-26T18:34:20.362Z,3.67
2023-03-26T18:39:22.828Z,3.60
2023-03-26T18:44:25.645Z,3.15
2023-03-26T18:49:30.040Z,3.40
2023-03-26T18:54:42.912Z,3.10
2023-03-26T18:59:46.036Z,4.18
2023-03-26T19:04:51.152Z,3.70
2023-03-26T19:09:56.694Z,3.80
2023-03-26T19:15:09.835Z,3.72
2023-03-26T19:20:22.280Z,3.80
2023-03-26T19:25:55.107Z,3.77
2023-03-26T19:31:26.182Z,4.30
2023-03-26T19:36:34.906Z,4.30
2023-03-26T19:41:42.386Z,3.87
2023-03-26T19:46:53.887Z,3.95
2023-03-26T19:52:15.357Z,4.10
2023-03-26T19:57:18.286Z,3.47
2023-03-26T20:02:20.856Z,3.92
2023-03-26T20:07:35.318Z,3.60
2023-03-26T20:12:38.908Z,3.83
2023-03-26T20:17:43.117Z,3.50
2023-03-26T20:22:47.258Z,3.95
2023-03-26T20:27:49.926Z,4.37
2023-03-26T20:33:12.589Z,4.35
2023-03-26T20:38:17.077Z,4.15
2023-03-26T20:43:24.424Z,3.90
2023-03-26T20:48:26.951Z,4.15
2023-03-26T20:53:30.721Z,4.00
2023-03-26T20:58:33.443Z,3.70
2023-03-26T21:03:54.301Z,4.35
2023-03-26T21:08:57.143Z,4.37
2023-03-26T21:14:10.377Z,4.10
2023-03-26T21:19:16.058Z,4.20
2023-03-26T21:24:54.449Z,4.37
2023-03-26T21:29:58.395Z,4.82
2023-03-26T21:35:01.405Z,4.50
2023-03-26T21:40:23.808Z,4.40
2023-03-26T21:45:26.956Z,4.47
2023-03-26T21:50:30.084Z,4.23
2023-03-26T21:55:51.826Z,4.47
2023-03-26T22:01:13.098Z,4.50
2023-03-26T22:06:32.475Z,4.10
2023-03-26T22:11:35.020Z,4.55
2023-03-26T22:16:37.888Z,3.97
2023-03-26T22:21:40.472Z,4.03
2023-03-26T22:26:43.182Z,3.90
2023-03-26T22:31:45.893Z,4.13
2023-03-26T22:36:48.521Z,4.68
2023-03-26T22:41:51.092Z,5.88
2023-03-26T22:46:54.751Z,5.57
2023-03-26T22:51:57.357Z,5.63
2023-03-26T22:57:00.370Z,6.10
2023-03-26T23:02:03.073Z,6.30
2023-03-26T23:07:05.923Z,6.00
2023-03-26T23:12:08.477Z,5.70
2023-03-26T23:17:14.805Z,6.15
2023-03-26T23:22:20.355Z,6.20
2023-03-26T23:27:23.170Z,5.63
2023-03-26T23:32:25.902Z,5.75
2023-03-26T23:37:29.731Z,5.77
2023-03-26T23:42:50.565Z,6.75
2023-03-26T23:47:53.172Z,6.43
2023-03-26T23:52:59.100Z,7.20
2023-03-26T23:58:02.818Z,5.38
